Time;durP1;ratioP1;P1;durP2;ratioP2;P2;SDS_P1;SDS_P2;PMS_P1;PMS_P2;Temp;Humidity;BMP_temperature;BMP_pressure;BME280_temperature;BME280_humidity;BME280_pressure;Samples;Min_cycle;Max_cycle;Signal;HPM_P1;HPM_P2
2023/07/30 00:02:43;;;;;;;18.17;16.88;;;;;;;;;;10458128;23;20445;-73
2023/07/30 00:08:50;;;;;;;19.73;17.90;;;;;;;;;;10223980;28;20140;-73
2023/07/30 00:14:04;;;;;;;18.13;16.92;;;;;;;;;;10195325;28;20050;-72
2023/07/30 00:19:01;;;;;;;18.75;17.27;;;;;;;;;;10198917;28;20058;-72
2023/07/30 00:23:58;;;;;;;17.60;16.38;;;;;;;;;;10166963;28;20529;-72
2023/07/30 00:28:54;;;;;;;18.60;17.27;;;;;;;;;;10198131;28;20081;-72
2023/07/30 00:33:50;;;;;;;16.75;15.35;;;;;;;;;;10180504;28;20046;-72
2023/07/30 00:38:46;;;;;;;17.45;16.10;;;;;;;;;;10197585;28;20053;-72
2023/07/30 00:43:43;;;;;;;17.35;16.15;;;;;;;;;;10172897;28;20050;-72
2023/07/30 00:48:39;;;;;;;16.60;15.38;;;;;;;;;;10197180;28;20057;-72
2023/07/30 00:53:56;;;;;;;16.30;15.20;;;;;;;;;;10266237;23;20115;-72
2023/07/30 01:03:57;;;;;;;19.25;17.63;;;;;;;;;;10253568;23;20433;-72
2023/07/30 01:19:43;;;;;;;18.98;17.58;;;;;;;;;;10025866;23;20037;-72
2023/07/30 01:24:39;;;;;;;18.20;16.98;;;;;;;;;;10186162;28;20442;-73
2023/07/30 01:29:42;;;;;;;19.00;17.60;;;;;;;;;;10236267;28;20055;-73
2023/07/30 01:34:40;;;;;;;17.70;16.50;;;;;;;;;;10226891;28;20046;-72
2023/07/30 01:39:38;;;;;;;19.67;17.88;;;;;;;;;;10235483;28;20563;-72
2023/07/30 01:44:34;;;;;;;17.85;16.58;;;;;;;;;;10214273;28;20065;-73
2023/07/30 01:49:30;;;;;;;17.98;16.67;;;;;;;;;;10231823;28;20049;-72
2023/07/30 01:54:26;;;;;;;21.73;19.85;;;;;;;;;;10206267;28;20049;-72
2023/07/30 01:59:23;;;;;;;17.20;16.02;;;;;;;;;;10229089;28;20054;-72
2023/07/30 02:04:19;;;;;;;20.05;18.35;;;;;;;;;;10204689;28;20061;-72
2023/07/30 02:26:40;;;;;;;;;;;;;;;;;;;;;
2023/07/30 02:32:15;;;;;;;19.60;18.10;;;;;;;;;;10067290;28;20051;-72
2023/07/30 02:44:45;;;;;;;20.77;19.10;;;;;;;;;;10129481;28;20037;-73
2023/07/30 02:55:09;;;;;;;20.10;18.37;;;;;;;;;;10093654;26;20609;-72
2023/07/30 03:00:06;;;;;;;19.65;18.15;;;;;;;;;;10153953;28;20060;-73
2023/07/30 03:05:02;;;;;;;19.30;17.80;;;;;;;;;;10186098;28;20057;-72
2023/07/30 03:09:59;;;;;;;19.88;18.27;;;;;;;;;;10234225;28;20053;-72
2023/07/30 03:14:55;;;;;;;20.80;19.10;;;;;;;;;;10200469;28;20109;-72
2023/07/30 03:19:51;;;;;;;20.38;18.40;;;;;;;;;;10213352;28;20062;-72
2023/07/30 03:24:48;;;;;;;20.50;18.80;;;;;;;;;;10181249;28;20052;-72
2023/07/30 03:29:44;;;;;;;20.40;18.70;;;;;;;;;;10171876;28;20058;-73
2023/07/30 03:34:40;;;;;;;20.90;19.23;;;;;;;;;;10186780;28;20394;-73
2023/07/30 03:45:06;;;;;;;20.77;18.65;;;;;;;;;;10202790;28;20112;-73
2023/07/30 03:50:02;;;;;;;20.35;18.65;;;;;;;;;;10201559;28;20054;-73
2023/07/30 03:54:58;;;;;;;20.73;18.85;;;;;;;;;;10212913;28;20410;-73
2023/07/30 03:59:55;;;;;;;21.10;19.30;;;;;;;;;;10208805;28;20103;-73
2023/07/30 04:04:51;;;;;;;20.60;19.00;;;;;;;;;;10228784;28;20058;-73
2023/07/30 04:09:47;;;;;;;22.05;20.17;;;;;;;;;;10198952;28;20479;-73
2023/07/30 04:14:43;;;;;;;22.08;20.30;;;;;;;;;;10194799;28;20058;-73
2023/07/30 04:19:40;;;;;;;21.70;19.55;;;;;;;;;;10238649;28;20057;-73
2023/07/30 04:24:36;;;;;;;22.63;20.73;;;;;;;;;;10211252;28;20074;-73
2023/07/30 04:29:32;;;;;;;22.23;20.02;;;;;;;;;;10228151;28;20410;-73
2023/07/30 04:34:29;;;;;;;21.23;19.33;;;;;;;;;;10210358;28;20046;-73
2023/07/30 04:39:25;;;;;;;20.83;18.85;;;;;;;;;;10199234;28;20057;-73
2023/07/30 04:44:21;;;;;;;19.80;18.08;;;;;;;;;;10197847;28;20045;-73
2023/07/30 04:55:15;;;;;;;17.55;15.95;;;;;;;;;;10102772;28;20055;-73
2023/07/30 05:00:35;;;;;;;17.52;15.85;;;;;;;;;;10106134;28;20514;-73
2023/07/30 05:05:31;;;;;;;17.65;16.05;;;;;;;;;;10158170;28;20458;-73
2023/07/30 05:10:28;;;;;;;18.00;16.33;;;;;;;;;;10157552;28;20077;-73
2023/07/30 05:15:24;;;;;;;17.83;16.05;;;;;;;;;;10190948;28;20049;-73
2023/07/30 05:20:24;;;;;;;17.67;15.98;;;;;;;;;;10196689;28;20112;-73
2023/07/30 05:25:20;;;;;;;17.00;15.02;;;;;;;;;;10196693;28;20062;-73
2023/07/30 05:30:17;;;;;;;15.77;13.95;;;;;;;;;;10196200;28;20500;-73
2023/07/30 05:35:15;;;;;;;19.33;14.13;;;;;;;;;;10196297;28;20536;-73
2023/07/30 05:40:11;;;;;;;16.15;13.30;;;;;;;;;;10195060;28;20058;-73
2023/07/30 05:45:08;;;;;;;16.52;14.60;;;;;;;;;;10195735;28;20064;-73
2023/07/30 05:50:04;;;;;;;20.95;13.93;;;;;;;;;;10168078;28;20738;-73
2023/07/30 05:55:04;;;;;;;16.77;14.73;;;;;;;;;;10171359;28;20120;-73
2023/07/30 06:00:00;;;;;;;14.40;12.75;;;;;;;;;;10195215;28;20050;-73
2023/07/30 06:04:57;;;;;;;17.38;14.02;;;;;;;;;;10194917;28;20065;-73
2023/07/30 06:09:53;;;;;;;18.63;15.18;;;;;;;;;;10194138;28;20081;-73
2023/07/30 06:14:50;;;;;;;16.02;13.50;;;;;;;;;;10194433;28;20092;-73
2023/07/30 06:19:46;;;;;;;15.27;13.40;;;;;;;;;;10158203;28;20466;-73
2023/07/30 06:24:42;;;;;;;17.38;13.82;;;;;;;;;;10168058;28;20061;-73
2023/07/30 06:29:38;;;;;;;18.20;12.65;;;;;;;;;;10194430;28;20049;-73
2023/07/30 06:34:35;;;;;;;18.50;13.25;;;;;;;;;;10194007;28;20066;-73
2023/07/30 06:39:31;;;;;;;17.67;13.55;;;;;;;;;;10194014;28;20076;-73
2023/07/30 06:44:27;;;;;;;17.13;13.50;;;;;;;;;;10161921;28;20054;-73
2023/07/30 06:49:24;;;;;;;18.80;15.75;;;;;;;;;;10154468;28;20065;-73
2023/07/30 06:54:20;;;;;;;20.92;14.90;;;;;;;;;;10163880;28;20422;-73
2023/07/30 06:59:16;;;;;;;23.17;16.38;;;;;;;;;;10192199;28;20096;-73
2023/07/30 07:04:13;;;;;;;27.85;17.33;;;;;;;;;;10199606;28;20046;-74
2023/07/30 07:09:09;;;;;;;20.75;15.40;;;;;;;;;;10200336;28;20133;-73
2023/07/30 07:14:05;;;;;;;23.48;15.65;;;;;;;;;;10201173;28;20506;-72
2023/07/30 07:19:02;;;;;;;26.08;16.23;;;;;;;;;;10200752;28;20560;-73
2023/07/30 07:23:58;;;;;;;21.23;16.52;;;;;;;;;;10198258;28;20080;-73
2023/07/30 07:28:55;;;;;;;23.90;14.32;;;;;;;;;;10199438;28;20053;-73
2023/07/30 07:33:52;;;;;;;27.08;15.85;;;;;;;;;;10200173;28;20050;-73
2023/07/30 07:38:48;;;;;;;23.33;12.65;;;;;;;;;;10182716;28;20489;-73
2023/07/30 07:43:45;;;;;;;25.20;13.70;;;;;;;;;;10199816;28;20046;-73
2023/07/30 07:48:42;;;;;;;18.90;11.98;;;;;;;;;;10199112;28;20050;-73
2023/07/30 07:53:39;;;;;;;19.52;11.40;;;;;;;;;;10181031;28;20046;-73
2023/07/30 07:58:38;;;;;;;20.17;11.98;;;;;;;;;;10195849;28;20053;-73
2023/07/30 08:03:34;;;;;;;20.63;11.93;;;;;;;;;;10197216;28;20054;-73
2023/07/30 08:08:31;;;;;;;22.77;11.30;;;;;;;;;;10196254;28;20054;-73
2023/07/30 08:13:27;;;;;;;19.00;10.32;;;;;;;;;;10195857;28;20529;-73
2023/07/30 08:18:23;;;;;;;12.23;10.38;;;;;;;;;;10196023;28;20049;-73
2023/07/30 08:23:20;;;;;;;22.17;10.52;;;;;;;;;;10196450;28;20045;-73
2023/07/30 08:28:16;;;;;;;13.63;10.00;;;;;;;;;;10195962;28;20425;-73
2023/07/30 08:33:13;;;;;;;13.48;9.38;;;;;;;;;;10195856;28;20089;-73
2023/07/30 08:38:09;;;;;;;21.05;10.25;;;;;;;;;;10196159;28;20057;-73
2023/07/30 08:43:05;;;;;;;13.65;9.77;;;;;;;;;;10195940;28;20536;-73
2023/07/30 08:48:02;;;;;;;14.68;9.57;;;;;;;;;;10195768;28;20540;-73
2023/07/30 08:52:59;;;;;;;15.45;8.98;;;;;;;;;;10159366;28;1068072;-73
2023/07/30 08:57:57;;;;;;;14.57;8.35;;;;;;;;;;10141261;28;20113;-73
2023/07/30 09:02:58;;;;;;;14.82;8.00;;;;;;;;;;10157812;28;20054;-73
2023/07/30 09:07:57;;;;;;;13.75;7.65;;;;;;;;;;10195884;28;20054;-73
2023/07/30 09:12:54;;;;;;;14.70;8.30;;;;;;;;;;10196223;28;20053;-73
2023/07/30 09:17:54;;;;;;;14.60;7.70;;;;;;;;;;10196402;28;20437;-73
2023/07/30 09:22:51;;;;;;;15.60;7.80;;;;;;;;;;10196310;28;20065;-73
2023/07/30 09:27:51;;;;;;;13.40;7.35;;;;;;;;;;10196389;28;20046;-73
2023/07/30 09:32:50;;;;;;;10.77;7.20;;;;;;;;;;10195421;28;20042;-73
2023/07/30 09:37:46;;;;;;;14.70;7.53;;;;;;;;;;10196006;28;20061;-73
2023/07/30 09:42:43;;;;;;;15.65;6.95;;;;;;;;;;10167976;28;20053;-73
2023/07/30 09:47:40;;;;;;;15.73;6.93;;;;;;;;;;10192980;28;20050;-73
2023/07/30 09:52:36;;;;;;;18.27;7.68;;;;;;;;;;10156749;28;20046;-73
2023/07/30 09:57:32;;;;;;;14.65;6.97;;;;;;;;;;10190787;28;20093;-73
2023/07/30 10:02:31;;;;;;;15.15;7.35;;;;;;;;;;10193929;28;20100;-73
2023/07/30 10:07:28;;;;;;;13.77;6.72;;;;;;;;;;10163048;28;20429;-73
2023/07/30 10:12:28;;;;;;;11.18;6.80;;;;;;;;;;10194161;28;20509;-73
2023/07/30 10:17:24;;;;;;;10.77;6.97;;;;;;;;;;10168408;28;20054;-73
2023/07/30 10:22:25;;;;;;;11.52;6.47;;;;;;;;;;10153727;28;20054;-73
2023/07/30 10:27:26;;;;;;;10.52;6.72;;;;;;;;;;10143584;28;20081;-72
2023/07/30 10:32:22;;;;;;;17.17;7.65;;;;;;;;;;10156090;28;20051;-73
2023/07/30 10:37:20;;;;;;;14.45;7.32;;;;;;;;;;10193999;28;20633;-73
2023/07/30 10:42:18;;;;;;;17.85;7.57;;;;;;;;;;10182759;28;20065;-72
2023/07/30 10:47:14;;;;;;;13.68;6.60;;;;;;;;;;10186766;28;20058;-72
2023/07/30 10:52:31;;;;;;;8.93;6.03;;;;;;;;;;10192803;28;20089;-73
2023/07/30 10:57:31;;;;;;;10.77;6.60;;;;;;;;;;10192836;28;20054;-72
2023/07/30 11:02:28;;;;;;;14.95;7.38;;;;;;;;;;10159520;28;20058;-73
2023/07/30 11:07:24;;;;;;;10.07;6.30;;;;;;;;;;10187881;28;20456;-73
2023/07/30 11:12:22;;;;;;;11.52;6.70;;;;;;;;;;10192053;28;20599;-72
2023/07/30 11:17:20;;;;;;;10.90;6.93;;;;;;;;;;10192451;28;20120;-73
2023/07/30 11:22:29;;;;;;;13.45;7.00;;;;;;;;;;10193668;28;20050;-73
2023/07/30 11:27:26;;;;;;;12.00;7.05;;;;;;;;;;10174696;28;20068;-73
2023/07/30 11:32:25;;;;;;;10.75;6.80;;;;;;;;;;10192550;28;20422;-72
2023/07/30 11:37:22;;;;;;;11.27;7.00;;;;;;;;;;10193044;28;20084;-72
2023/07/30 11:42:19;;;;;;;11.77;7.43;;;;;;;;;;10191359;28;20525;-72
2023/07/30 11:47:20;;;;;;;11.65;7.32;;;;;;;;;;10191892;28;20046;-72
2023/07/30 11:52:17;;;;;;;11.25;7.15;;;;;;;;;;10184109;28;20058;-72
2023/07/30 11:57:13;;;;;;;12.02;6.68;;;;;;;;;;10193061;28;20107;-72
2023/07/30 12:02:16;;;;;;;8.63;7.22;;;;;;;;;;10163131;28;20054;-72
2023/07/30 12:07:21;;;;;;;8.70;6.72;;;;;;;;;;10192027;28;20050;-72
2023/07/30 12:12:17;;;;;;;9.13;6.65;;;;;;;;;;10198148;28;20093;-72
2023/07/30 12:17:14;;;;;;;8.68;6.38;;;;;;;;;;10190932;28;20058;-72
2023/07/30 12:22:10;;;;;;;9.55;6.15;;;;;;;;;;10141448;28;20061;-72
2023/07/30 12:27:06;;;;;;;8.88;6.68;;;;;;;;;;10190544;28;20438;-72
2023/07/30 12:32:03;;;;;;;12.60;7.32;;;;;;;;;;10198804;28;20133;-72
2023/07/30 12:37:00;;;;;;;9.57;6.90;;;;;;;;;;10167391;28;20081;-72
2023/07/30 12:41:56;;;;;;;9.63;6.40;;;;;;;;;;10158314;28;20062;-72
2023/07/30 12:46:53;;;;;;;11.15;6.55;;;;;;;;;;10189118;28;20057;-72
2023/07/30 12:51:49;;;;;;;7.53;5.53;;;;;;;;;;10179770;28;20050;-72
2023/07/30 12:56:45;;;;;;;8.57;5.97;;;;;;;;;;10197153;28;20054;-72
2023/07/30 13:01:42;;;;;;;6.45;5.63;;;;;;;;;;10196370;28;20137;-72
2023/07/30 13:06:43;;;;;;;10.40;5.95;;;;;;;;;;10180019;28;20179;-72
2023/07/30 13:11:39;;;;;;;8.75;5.78;;;;;;;;;;10164472;28;20141;-72
2023/07/30 13:16:36;;;;;;;9.98;6.70;;;;;;;;;;10185109;28;20056;-71
2023/07/30 13:22:01;;;;;;;7.25;6.55;;;;;;;;;;10219448;23;20091;-72
2023/07/30 13:27:29;;;;;;;10.13;7.20;;;;;;;;;;10022591;29;20504;-72
2023/07/30 13:32:43;;;;;;;9.18;8.32;;;;;;;;;;10239201;23;20042;-73
2023/07/30 13:37:39;;;;;;;9.18;8.30;;;;;;;;;;10191466;28;20137;-72
2023/07/30 13:42:36;;;;;;;9.98;8.13;;;;;;;;;;10194581;28;20532;-72
2023/07/30 13:47:32;;;;;;;9.02;8.25;;;;;;;;;;10231493;28;20049;-72
2023/07/30 13:52:29;;;;;;;11.18;8.38;;;;;;;;;;10220011;23;20054;-72
2023/07/30 13:57:25;;;;;;;9.63;8.00;;;;;;;;;;10224818;28;20184;-73
2023/07/30 14:02:36;;;;;;;10.65;9.63;;;;;;;;;;10284829;22;20136;-73
2023/07/30 14:07:53;;;;;;;8.80;7.85;;;;;;;;;;10154208;28;20046;-72
2023/07/30 14:12:49;;;;;;;10.15;8.13;;;;;;;;;;10193840;28;20070;-72
2023/07/30 14:17:46;;;;;;;7.47;6.72;;;;;;;;;;10185649;28;20050;-73
2023/07/30 14:22:43;;;;;;;10.15;7.97;;;;;;;;;;10233752;23;20041;-72
2023/07/30 14:27:39;;;;;;;7.25;6.10;;;;;;;;;;10200708;28;20731;-73
2023/07/30 14:32:35;;;;;;;7.97;5.35;;;;;;;;;;10194187;28;20502;-72
2023/07/30 14:37:32;;;;;;;6.07;4.18;;;;;;;;;;10229604;28;20049;-73
2023/07/30 14:42:28;;;;;;;8.52;5.18;;;;;;;;;;10221193;28;20054;-73
2023/07/30 14:47:24;;;;;;;7.03;4.50;;;;;;;;;;10228123;28;20049;-73
2023/07/30 14:52:21;;;;;;;7.22;3.88;;;;;;;;;;10201216;28;20057;-73
2023/07/30 14:57:17;;;;;;;5.75;3.65;;;;;;;;;;10224753;28;20128;-73
2023/07/30 15:02:13;;;;;;;5.70;4.10;;;;;;;;;;10273962;23;20042;-73
2023/07/30 15:07:10;;;;;;;6.00;3.85;;;;;;;;;;10200235;28;20502;-73
2023/07/30 15:12:09;;;;;;;9.27;4.93;;;;;;;;;;10193218;28;20104;-74
2023/07/30 15:17:06;;;;;;;6.38;3.65;;;;;;;;;;10216597;28;20522;-74
2023/07/30 15:22:02;;;;;;;8.25;4.07;;;;;;;;;;10194972;28;20065;-74
2023/07/30 15:26:59;;;;;;;8.57;4.57;;;;;;;;;;10211912;28;20045;-74
2023/07/30 15:31:56;;;;;;;6.38;3.65;;;;;;;;;;10200928;28;20076;-74
2023/07/30 15:36:53;;;;;;;7.22;3.70;;;;;;;;;;10231036;28;20165;-74
2023/07/30 15:41:49;;;;;;;7.45;3.90;;;;;;;;;;10232038;28;20050;-74
2023/07/30 15:46:46;;;;;;;10.80;4.85;;;;;;;;;;10229764;28;20130;-74
2023/07/30 15:51:42;;;;;;;10.57;5.18;;;;;;;;;;10221922;28;20112;-74
2023/07/30 15:56:38;;;;;;;7.25;4.40;;;;;;;;;;10228374;28;20406;-74
2023/07/30 16:07:56;;;;;;;;;;;;;;;;;;;;;
2023/07/30 16:13:35;;;;;;;10.45;5.97;;;;;;;;;;10174748;28;20057;-74
2023/07/30 16:18:38;;;;;;;7.60;5.28;;;;;;;;;;10209197;28;20049;-73
2023/07/30 16:29:43;;;;;;;6.72;4.25;;;;;;;;;;10177125;28;20058;-74
2023/07/30 16:47:14;;;;;;;6.18;5.00;;;;;;;;;;10187933;28;20041;-74
2023/07/30 16:58:01;;;;;;;7.70;5.20;;;;;;;;;;10221117;28;20053;-74
2023/07/30 17:09:36;;;;;;;8.73;5.35;;;;;;;;;;10132996;28;20066;-74
2023/07/30 17:14:41;;;;;;;8.02;4.75;;;;;;;;;;10197012;28;20071;-74
2023/07/30 17:19:59;;;;;;;6.25;5.50;;;;;;;;;;10186087;28;20053;-74
2023/07/30 17:25:35;;;;;;;7.93;6.00;;;;;;;;;;10188752;28;20050;-75
2023/07/30 17:30:49;;;;;;;7.88;5.88;;;;;;;;;;10185853;28;20053;-75
2023/07/30 17:41:31;;;;;;;5.57;4.93;;;;;;;;;;10186360;28;20472;-74
2023/07/30 17:46:40;;;;;;;7.40;5.28;;;;;;;;;;10222524;28;20088;-74
2023/07/30 17:51:53;;;;;;;6.03;5.43;;;;;;;;;;10212262;28;20060;-74
2023/07/30 18:02:18;;;;;;;9.50;5.20;;;;;;;;;;10201892;28;20049;-74
2023/07/30 18:07:14;;;;;;;6.78;6.07;;;;;;;;;;10216213;28;20060;-73
2023/07/30 18:12:11;;;;;;;8.63;6.78;;;;;;;;;;10194717;28;20433;-73
2023/07/30 18:17:07;;;;;;;7.40;6.80;;;;;;;;;;10220206;28;20076;-73
2023/07/30 18:22:45;;;;;;;;;;;;;;;;;;;;;
2023/07/30 18:34:15;;;;;;;8.63;6.38;;;;;;;;;;10078236;28;20498;-72
2023/07/30 18:44:23;;;;;;;6.90;6.30;;;;;;;;;;10383044;22;20049;-74
2023/07/30 19:07:40;;;;;;;;;;;;;;;;;;;;;
2023/07/30 19:13:01;;;;;;;9.18;8.27;;;;;;;;;;9928639;29;20089;-73
2023/07/30 19:17:57;;;;;;;11.48;10.48;;;;;;;;;;10060481;28;20572;-73
2023/07/30 19:22:53;;;;;;;9.57;8.85;;;;;;;;;;10082509;28;20051;-73
2023/07/30 19:27:52;;;;;;;9.15;8.23;;;;;;;;;;10087820;28;20047;-73
2023/07/30 19:32:48;;;;;;;9.65;8.80;;;;;;;;;;10082127;28;20106;-73
2023/07/30 19:37:45;;;;;;;10.20;9.30;;;;;;;;;;10224539;28;20061;-73
2023/07/30 19:48:13;;;;;;;10.37;9.57;;;;;;;;;;10293926;23;20053;-73
2023/07/30 19:53:10;;;;;;;9.57;8.77;;;;;;;;;;10175024;28;20052;-73
2023/07/30 19:58:22;;;;;;;11.38;10.40;;;;;;;;;;10166201;28;20053;-73
2023/07/30 20:15:35;;;;;;;;;;;;;;;;;;;;;
2023/07/30 20:27:35;;;;;;;14.18;12.77;;;;;;;;;;10097967;28;20079;-73
2023/07/30 20:37:56;;;;;;;11.27;10.47;;;;;;;;;;10441136;23;20050;-73
2023/07/30 20:54:53;;;;;;;13.27;12.27;;;;;;;;;;10106207;28;20146;-72
2023/07/30 21:00:09;;;;;;;11.88;10.88;;;;;;;;;;10258155;23;20062;-71
2023/07/30 21:05:06;;;;;;;11.80;10.70;;;;;;;;;;10217736;28;20053;-71
2023/07/30 21:16:34;;;;;;;;;;;;;;;;;;;;;
2023/07/30 21:21:54;;;;;;;13.57;12.38;;;;;;;;;;10088018;28;20478;-72
2023/07/30 21:26:51;;;;;;;16.50;13.15;;;;;;;;;;10160814;28;20062;-72
2023/07/30 21:31:47;;;;;;;15.15;13.75;;;;;;;;;;10254782;23;20057;-71
2023/07/30 21:36:44;;;;;;;14.20;12.95;;;;;;;;;;10206354;28;20742;-72
2023/07/30 21:41:40;;;;;;;15.27;13.90;;;;;;;;;;10196579;28;20057;-71
2023/07/30 21:46:36;;;;;;;14.45;12.23;;;;;;;;;;10204542;28;20509;-71
2023/07/30 21:51:33;;;;;;;15.43;14.27;;;;;;;;;;10178191;28;20575;-72
2023/07/30 21:56:29;;;;;;;14.63;13.70;;;;;;;;;;10223372;28;20505;-71
2023/07/30 22:01:26;;;;;;;14.63;13.68;;;;;;;;;;10641884;22;20421;-71
2023/07/30 22:06:22;;;;;;;14.68;13.63;;;;;;;;;;10195268;28;20049;-72
2023/07/30 22:11:18;;;;;;;14.43;13.32;;;;;;;;;;10173293;28;20046;-72
2023/07/30 22:16:16;;;;;;;14.23;13.20;;;;;;;;;;10153400;28;20308;-72
2023/07/30 22:26:23;;;;;;;13.90;12.88;;;;;;;;;;10243910;23;20049;-72
2023/07/30 22:31:59;;;;;;;14.57;13.40;;;;;;;;;;10864602;23;20814;-72
2023/07/30 22:37:20;;;;;;;14.25;13.15;;;;;;;;;;10230169;28;20140;-72
2023/07/30 22:42:16;;;;;;;13.52;12.43;;;;;;;;;;10226437;28;20510;-71
2023/07/30 22:47:12;;;;;;;13.80;12.65;;;;;;;;;;10261084;28;20579;-71
2023/07/30 22:52:09;;;;;;;13.48;12.23;;;;;;;;;;10415561;22;20132;-72
2023/07/30 22:57:05;;;;;;;13.75;12.60;;;;;;;;;;10239309;28;20065;-71
2023/07/30 23:25:02;;;;;;;14.52;13.52;;;;;;;;;;9846079;26;20057;-72
2023/07/30 23:29:59;;;;;;;15.48;13.95;;;;;;;;;;10213056;28;20097;-72
2023/07/30 23:34:55;;;;;;;15.73;14.32;;;;;;;;;;10231336;28;20132;-72
2023/07/30 23:39:52;;;;;;;15.40;14.10;;;;;;;;;;10261233;28;20046;-73
2023/07/30 23:44:48;;;;;;;15.80;14.32;;;;;;;;;;10224909;28;20045;-73
2023/07/30 23:54:56;;;;;;;15.52;14.30;;;;;;;;;;10339316;22;20045;-73
2023/07/30 23:59:52;;;;;;;15.63;14.25;;;;;;;;;;10231992;28;20054;-72
